Time;durP1;ratioP1;P1;durP2;ratioP2;P2;SDS_P1;SDS_P2;PMS_P1;PMS_P2;Temp;Humidity;BMP_temperature;BMP_pressure;BME280_temperature;BME280_humidity;BME280_pressure;Samples;Min_cycle;Max_cycle;Signal;HPM_P1;HPM_P2
2022/12/23 00:00:25;;;;;;;4.72;2.90;;;20.60;99.90;;;;;;4200713;28;20215;-77
2022/12/23 00:02:29;;;;;;;5.10;2.75;;;20.60;99.90;;;;;;4201842;28;20208;-77
2022/12/23 00:04:33;;;;;;;5.55;2.97;;;20.60;99.90;;;;;;4204172;28;20468;-77
2022/12/23 00:06:35;;;;;;;4.55;2.70;;;20.60;99.90;;;;;;4201168;28;20280;-77
2022/12/23 00:08:38;;;;;;;4.80;2.85;;;20.60;99.90;;;;;;4197648;28;20261;-77
2022/12/23 00:10:41;;;;;;;5.10;3.10;;;20.60;99.90;;;;;;4200329;28;20219;-77
2022/12/23 00:15:06;;;;;;;5.65;2.72;;;20.50;99.90;;;;;;4197934;28;20196;-77
2022/12/23 00:17:10;;;;;;;6.20;2.75;;;20.60;99.90;;;;;;4199541;28;20215;-77
2022/12/23 00:19:12;;;;;;;5.97;3.00;;;20.50;99.90;;;;;;4205251;28;20639;-77
2022/12/23 00:21:17;;;;;;;5.50;2.92;;;20.50;99.90;;;;;;4199924;28;20276;-77
2022/12/23 00:23:20;;;;;;;5.85;2.80;;;20.60;99.90;;;;;;4203794;28;20219;-77
2022/12/23 00:25:38;;;;;;;5.60;2.60;;;20.50;99.90;;;;;;4200691;28;20227;-76
2022/12/23 00:27:41;;;;;;;6.90;3.03;;;20.50;99.90;;;;;;4205722;28;20636;-77
2022/12/23 00:29:43;;;;;;;3.83;2.38;;;20.50;99.90;;;;;;4200646;28;20219;-77
2022/12/23 00:31:46;;;;;;;5.20;2.67;;;20.50;99.90;;;;;;4200314;28;20372;-77
2022/12/23 00:33:50;;;;;;;5.57;2.78;;;20.50;99.90;;;;;;4199397;28;20238;-77
2022/12/23 00:35:53;;;;;;;4.93;2.50;;;20.50;99.90;;;;;;4205944;28;20252;-77
2022/12/23 00:37:57;;;;;;;6.72;2.70;;;20.50;99.90;;;;;;4202141;28;20663;-76
2022/12/23 00:44:39;;;;;;;4.68;2.47;;;20.50;99.90;;;;;;4204923;28;20925;-76
2022/12/23 00:46:41;;;;;;;5.07;2.58;;;20.40;99.90;;;;;;4206919;28;20267;-76
2022/12/23 00:51:02;;;;;;;4.28;2.45;;;20.40;99.90;;;;;;4191955;28;20214;-76
2022/12/23 00:53:07;;;;;;;4.55;2.60;;;20.50;99.90;;;;;;4212812;28;20210;-76
2022/12/23 00:55:09;;;;;;;6.93;2.70;;;20.40;99.90;;;;;;4210026;28;20276;-76
2022/12/23 00:57:11;;;;;;;4.80;2.70;;;20.40;99.90;;;;;;4201513;28;20222;-76
2022/12/23 00:59:14;;;;;;;5.75;2.75;;;20.40;99.90;;;;;;4213085;28;20276;-76
2022/12/23 01:05:58;;;;;;;4.72;2.78;;;20.40;99.90;;;;;;4211007;28;20260;-76
2022/12/23 01:08:00;;;;;;;6.72;2.55;;;20.40;99.90;;;;;;4201646;28;20291;-76
2022/12/23 01:10:05;;;;;;;5.97;2.67;;;20.40;99.90;;;;;;4202795;28;20297;-76
2022/12/23 01:12:07;;;;;;;5.47;2.85;;;20.40;99.90;;;;;;4210777;28;20214;-76
2022/12/23 01:14:10;;;;;;;4.80;2.53;;;20.40;99.90;;;;;;4206659;28;20238;-76
2022/12/23 01:16:12;;;;;;;6.13;2.65;;;20.30;99.90;;;;;;4218578;28;20259;-76
2022/12/23 01:18:15;;;;;;;4.78;2.33;;;20.30;99.90;;;;;;4210474;28;20222;-76
2022/12/23 01:20:17;;;;;;;5.65;2.65;;;20.30;99.90;;;;;;4213534;28;20264;-76
2022/12/23 01:22:19;;;;;;;5.72;2.60;;;20.30;99.90;;;;;;4205020;28;20724;-76
2022/12/23 01:24:22;;;;;;;5.85;2.63;;;20.30;99.90;;;;;;4199375;28;20219;-76
2022/12/23 01:26:26;;;;;;;5.22;2.30;;;20.30;99.90;;;;;;4209250;28;20280;-76
2022/12/23 01:28:30;;;;;;;4.82;2.55;;;20.30;99.90;;;;;;4204338;28;20211;-76
2022/12/23 01:30:32;;;;;;;4.45;2.33;;;20.30;99.90;;;;;;4206008;28;20713;-76
2022/12/23 01:32:35;;;;;;;4.63;2.25;;;20.30;99.90;;;;;;4200304;28;20261;-76
2022/12/23 01:34:38;;;;;;;5.60;2.78;;;20.30;99.90;;;;;;4207541;28;20713;-76
2022/12/23 01:36:40;;;;;;;5.13;2.70;;;20.30;99.90;;;;;;4196163;28;20219;-76
2022/12/23 01:38:43;;;;;;;3.75;2.58;;;20.30;99.90;;;;;;4204319;28;20713;-76
2022/12/23 01:40:45;;;;;;;3.67;2.40;;;20.30;99.90;;;;;;4201857;28;20279;-76
2022/12/23 01:42:48;;;;;;;4.20;2.22;;;20.30;99.90;;;;;;4199209;28;20272;-76
2022/12/23 01:44:56;;;;;;;4.50;2.22;;;20.30;99.90;;;;;;4196518;28;20215;-76
2022/12/23 01:46:59;;;;;;;4.00;2.15;;;20.30;99.90;;;;;;4200592;28;20264;-76
2022/12/23 01:49:01;;;;;;;4.95;2.28;;;20.30;99.90;;;;;;4205196;28;20247;-76
2022/12/23 01:51:06;;;;;;;4.60;2.50;;;20.30;99.90;;;;;;4199973;28;20275;-76
2022/12/23 01:53:12;;;;;;;5.32;2.58;;;20.20;99.90;;;;;;4204345;28;20223;-76
2022/12/23 01:55:19;;;;;;;4.55;2.40;;;20.30;99.90;;;;;;4203657;28;20239;-76
2022/12/23 01:57:21;;;;;;;4.57;2.22;;;20.20;99.90;;;;;;4200276;28;20226;-76
2022/12/23 02:04:06;;;;;;;3.88;2.15;;;20.20;99.90;;;;;;4198815;28;20199;-76
2022/12/23 02:11:07;;;;;;;4.28;2.60;;;20.20;99.90;;;;;;4200707;28;20187;-76
2022/12/23 02:13:16;;;;;;;4.90;2.50;;;20.30;99.90;;;;;;4201733;28;20543;-76
2022/12/23 02:18:05;;;;;;;5.95;2.65;;;20.20;99.90;;;;;;4204434;28;20191;-76
2022/12/23 02:20:45;;;;;;;4.25;2.42;;;20.20;99.90;;;;;;4204957;28;20261;-76
2022/12/23 02:23:10;;;;;;;3.50;1.95;;;20.20;99.90;;;;;;4202529;28;20334;-76
2022/12/23 02:25:49;;;;;;;4.00;2.20;;;20.10;99.90;;;;;;4203869;28;20215;-76
2022/12/23 02:28:05;;;;;;;4.55;2.45;;;20.20;99.90;;;;;;4179003;28;20214;-76
2022/12/23 02:30:34;;;;;;;4.57;2.92;;;20.20;99.90;;;;;;4211468;28;20214;-76
2022/12/23 02:32:53;;;;;;;4.80;2.45;;;20.10;99.90;;;;;;4208062;28;20260;-76
2022/12/23 02:35:04;;;;;;;5.38;2.40;;;20.10;99.90;;;;;;4211892;28;20299;-76
2022/12/23 02:37:14;;;;;;;6.00;2.25;;;20.10;99.90;;;;;;4203558;28;20218;-76
2022/12/23 02:39:21;;;;;;;4.00;2.25;;;20.10;99.90;;;;;;4204548;28;20670;-76
2022/12/23 02:41:32;;;;;;;4.30;2.22;;;20.10;99.90;;;;;;4208120;28;20210;-76
2022/12/23 02:43:43;;;;;;;4.53;2.58;;;20.10;99.90;;;;;;4210409;28;20214;-76
2022/12/23 02:45:52;;;;;;;5.53;2.60;;;20.10;99.90;;;;;;4211212;28;20214;-76
2022/12/23 02:47:59;;;;;;;3.35;2.10;;;20.10;99.90;;;;;;4195779;28;20240;-76
2022/12/23 02:50:08;;;;;;;5.63;2.38;;;20.10;99.90;;;;;;4207448;28;20655;-76
2022/12/23 02:52:13;;;;;;;3.38;2.03;;;20.10;99.90;;;;;;4206825;28;20224;-76
2022/12/23 02:54:20;;;;;;;5.80;2.40;;;20.10;99.90;;;;;;4205656;28;20264;-76
2022/12/23 02:56:25;;;;;;;4.05;2.30;;;20.10;99.90;;;;;;4200743;28;20277;-75
2022/12/23 02:58:32;;;;;;;4.18;2.35;;;20.10;99.90;;;;;;4209606;28;20279;-76
2022/12/23 03:00:35;;;;;;;5.15;2.08;;;20.10;99.90;;;;;;4198487;28;20207;-76
2022/12/23 03:02:40;;;;;;;5.07;2.30;;;20.10;99.90;;;;;;4198442;28;20265;-76
2022/12/23 03:04:44;;;;;;;5.00;2.03;;;20.10;99.90;;;;;;4209102;28;20210;-76
2022/12/23 03:06:51;;;;;;;4.63;2.33;;;20.10;99.90;;;;;;4209468;28;20223;-76
2022/12/23 03:08:56;;;;;;;4.57;2.25;;;20.10;99.90;;;;;;4209905;28;20256;-77
2022/12/23 03:11:03;;;;;;;5.07;2.38;;;20.10;99.90;;;;;;4207092;28;20259;-76
2022/12/23 03:13:18;;;;;;;4.60;2.20;;;20.10;99.90;;;;;;4211353;28;20217;-76
2022/12/23 03:15:32;;;;;;;3.47;2.03;;;20.10;99.90;;;;;;4210056;28;20234;-76
2022/12/23 03:17:48;;;;;;;3.65;1.95;;;20.10;99.90;;;;;;4208521;28;20311;-76
2022/12/23 03:19:57;;;;;;;4.68;2.30;;;20.10;99.90;;;;;;4202105;28;20255;-76
2022/12/23 03:22:09;;;;;;;4.03;2.33;;;20.00;99.90;;;;;;4203680;28;20616;-76
2022/12/23 03:24:19;;;;;;;3.55;1.98;;;20.00;99.90;;;;;;4210572;28;20213;-76
2022/12/23 03:26:27;;;;;;;3.17;1.90;;;20.00;99.90;;;;;;4202353;28;20236;-76
2022/12/23 03:28:34;;;;;;;3.92;2.10;;;20.00;99.90;;;;;;4202191;28;20268;-76
2022/12/23 03:30:40;;;;;;;3.83;1.80;;;20.00;99.90;;;;;;4198953;28;20237;-76
2022/12/23 03:32:48;;;;;;;4.07;2.40;;;20.00;99.90;;;;;;4206004;28;20269;-76
2022/12/23 03:34:54;;;;;;;4.72;2.78;;;20.00;99.90;;;;;;4207230;28;20242;-76
2022/12/23 03:37:00;;;;;;;3.50;1.73;;;20.00;99.90;;;;;;4202330;28;20268;-76
2022/12/23 03:39:05;;;;;;;3.80;1.70;;;20.00;99.90;;;;;;4204337;28;20269;-76
2022/12/23 03:41:10;;;;;;;3.08;2.00;;;20.00;99.90;;;;;;4200396;28;20625;-76
2022/12/23 03:43:18;;;;;;;3.50;2.05;;;20.00;99.90;;;;;;4207467;28;20218;-76
2022/12/23 03:45:26;;;;;;;4.03;2.05;;;20.00;99.90;;;;;;4202881;28;20207;-76
2022/12/23 03:47:32;;;;;;;3.78;2.10;;;20.00;99.90;;;;;;4210144;28;20264;-76
2022/12/23 03:49:38;;;;;;;3.83;2.03;;;20.00;99.90;;;;;;4208169;28;20231;-76
2022/12/23 03:51:49;;;;;;;4.72;2.10;;;20.00;99.90;;;;;;4207213;28;20223;-76
2022/12/23 03:53:55;;;;;;;4.63;2.22;;;19.90;99.90;;;;;;4211029;28;20218;-76
2022/12/23 03:56:02;;;;;;;4.80;2.10;;;20.00;99.90;;;;;;4202279;28;20238;-76
2022/12/23 03:58:12;;;;;;;3.65;1.70;;;20.00;99.90;;;;;;4210954;28;20234;-76
2022/12/23 04:00:15;;;;;;;4.80;2.10;;;20.00;99.90;;;;;;4203465;28;20255;-76
2022/12/23 04:02:24;;;;;;;3.75;2.20;;;20.00;99.90;;;;;;4214648;28;20655;-76
2022/12/23 04:04:32;;;;;;;4.70;2.20;;;20.00;99.90;;;;;;4199852;28;20279;-76
2022/12/23 04:06:43;;;;;;;3.80;1.95;;;19.90;99.90;;;;;;4202777;28;20257;-76
2022/12/23 04:08:48;;;;;;;4.13;2.10;;;19.90;99.90;;;;;;4205800;28;20654;-76
2022/12/23 04:10:51;;;;;;;4.65;2.03;;;19.90;99.90;;;;;;4207724;28;20210;-76
2022/12/23 04:12:54;;;;;;;2.72;1.67;;;19.90;99.90;;;;;;4202355;28;20219;-77
2022/12/23 04:14:57;;;;;;;4.32;2.20;;;19.90;99.90;;;;;;4204123;28;20259;-76
2022/12/23 04:17:00;;;;;;;4.00;1.88;;;19.90;99.90;;;;;;4206362;28;20219;-76
2022/12/23 04:19:02;;;;;;;2.95;1.65;;;19.90;99.90;;;;;;4200649;28;20223;-76
2022/12/23 04:21:05;;;;;;;3.00;1.80;;;19.90;99.90;;;;;;4203779;28;20745;-76
2022/12/23 04:23:07;;;;;;;3.15;1.75;;;19.90;99.90;;;;;;4207036;28;20222;-76
2022/12/23 04:25:11;;;;;;;4.30;2.20;;;19.90;99.90;;;;;;4199311;28;20207;-76
2022/12/23 04:27:15;;;;;;;3.65;2.13;;;19.90;99.90;;;;;;4205751;28;20218;-76
2022/12/23 04:29:18;;;;;;;2.80;1.70;;;19.90;99.90;;;;;;4200878;28;20682;-76
2022/12/23 04:31:20;;;;;;;2.88;1.75;;;19.90;99.90;;;;;;4202233;28;20214;-76
2022/12/23 04:33:23;;;;;;;2.95;1.75;;;19.90;99.90;;;;;;4205194;28;20287;-76
2022/12/23 04:35:25;;;;;;;3.65;1.95;;;19.90;99.90;;;;;;4202429;28;20644;-76
2022/12/23 04:37:27;;;;;;;3.15;1.88;;;19.90;99.90;;;;;;4204701;28;20655;-76
2022/12/23 04:39:30;;;;;;;4.32;1.95;;;19.90;99.90;;;;;;4201422;28;20211;-76
2022/12/23 04:41:33;;;;;;;2.95;1.83;;;19.90;99.90;;;;;;4207342;28;20206;-76
2022/12/23 04:43:36;;;;;;;3.72;2.00;;;19.90;99.90;;;;;;4201550;28;20319;-76
2022/12/23 04:45:38;;;;;;;3.38;1.60;;;19.90;99.90;;;;;;4201853;28;20215;-76
2022/12/23 04:47:40;;;;;;;2.90;1.48;;;19.90;99.90;;;;;;4210124;28;20279;-76
2022/12/23 04:49:43;;;;;;;5.20;1.88;;;19.90;99.90;;;;;;4200171;28;20203;-76
2022/12/23 04:51:45;;;;;;;2.40;1.80;;;19.90;99.90;;;;;;4203155;28;20215;-76
2022/12/23 04:53:47;;;;;;;2.85;1.75;;;19.90;99.90;;;;;;4202889;28;20978;-76
2022/12/23 04:55:50;;;;;;;3.08;1.60;;;19.80;99.90;;;;;;4203443;28;20238;-76
2022/12/23 04:57:54;;;;;;;3.70;1.75;;;19.80;99.90;;;;;;4197641;28;20230;-76
2022/12/23 04:59:56;;;;;;;3.55;1.88;;;19.80;99.90;;;;;;4202497;28;20219;-76
2022/12/23 05:01:59;;;;;;;3.33;1.83;;;19.90;99.90;;;;;;4199094;28;20694;-76
2022/12/23 05:04:01;;;;;;;4.20;2.08;;;19.80;99.90;;;;;;4198129;28;20241;-76
2022/12/23 05:06:04;;;;;;;3.42;1.98;;;19.90;99.90;;;;;;4202494;28;20207;-77
2022/12/23 05:08:06;;;;;;;2.65;1.65;;;19.80;99.90;;;;;;4198755;28;20218;-77
2022/12/23 05:10:10;;;;;;;3.97;1.95;;;19.90;99.90;;;;;;4199695;28;20223;-76
2022/12/23 05:12:12;;;;;;;4.25;1.77;;;19.80;99.90;;;;;;4202526;28;20267;-76
2022/12/23 05:14:16;;;;;;;3.67;1.75;;;19.80;99.90;;;;;;4206812;28;20215;-76
2022/12/23 05:16:19;;;;;;;3.28;1.73;;;19.80;99.90;;;;;;4197032;28;20719;-77
2022/12/23 05:18:21;;;;;;;2.80;1.60;;;19.80;99.90;;;;;;4203470;28;20215;-76
2022/12/23 05:20:23;;;;;;;3.13;1.70;;;19.80;99.90;;;;;;4204693;28;20268;-76
2022/12/23 05:22:26;;;;;;;3.65;2.13;;;19.80;99.90;;;;;;4201024;28;20445;-76
2022/12/23 05:24:28;;;;;;;2.72;1.70;;;19.80;99.90;;;;;;4198830;28;20240;-76
2022/12/23 05:26:31;;;;;;;2.92;1.85;;;19.80;99.90;;;;;;4204628;28;20211;-76
2022/12/23 05:28:33;;;;;;;2.83;1.55;;;19.80;99.90;;;;;;4201561;28;20651;-76
2022/12/23 05:30:37;;;;;;;3.20;1.90;;;19.80;99.90;;;;;;4205461;28;20261;-76
2022/12/23 05:32:39;;;;;;;3.28;1.92;;;19.80;99.90;;;;;;4200649;28;20219;-77
2022/12/23 05:34:41;;;;;;;3.47;1.90;;;19.80;99.90;;;;;;4205691;28;20312;-76
2022/12/23 05:36:44;;;;;;;4.07;1.73;;;19.80;99.90;;;;;;4199542;28;20756;-76
2022/12/23 05:38:47;;;;;;;2.65;1.58;;;19.80;99.90;;;;;;4202182;28;20211;-76
2022/12/23 05:40:49;;;;;;;4.28;1.75;;;19.80;99.90;;;;;;4200447;28;20264;-76
2022/12/23 05:42:51;;;;;;;3.17;1.48;;;19.80;99.90;;;;;;4198319;28;20207;-77
2022/12/23 05:44:54;;;;;;;3.08;1.80;;;19.80;99.90;;;;;;4197797;28;20211;-76
2022/12/23 05:46:57;;;;;;;4.15;1.90;;;19.80;99.90;;;;;;4203438;28;20256;-76
2022/12/23 05:49:00;;;;;;;3.22;1.67;;;19.80;99.90;;;;;;4202191;28;20210;-77
2022/12/23 05:51:02;;;;;;;4.72;1.90;;;19.80;99.90;;;;;;4204996;28;20264;-77
2022/12/23 05:53:05;;;;;;;2.90;1.88;;;19.80;99.90;;;;;;4204249;28;20215;-76
2022/12/23 05:55:09;;;;;;;3.70;2.10;;;19.80;99.90;;;;;;4203531;28;20223;-76
2022/12/23 05:57:11;;;;;;;3.08;1.70;;;19.80;99.90;;;;;;4199869;28;20234;-76
2022/12/23 05:59:14;;;;;;;4.10;1.80;;;19.80;99.90;;;;;;4204107;28;20226;-76
2022/12/23 06:01:16;;;;;;;3.30;1.73;;;19.80;99.90;;;;;;4199304;28;20706;-76
2022/12/23 06:03:20;;;;;;;2.75;1.40;;;19.70;99.90;;;;;;4200682;28;20245;-76
2022/12/23 06:05:23;;;;;;;2.85;1.55;;;19.70;99.90;;;;;;4201688;28;20215;-77
2022/12/23 06:07:25;;;;;;;2.38;1.38;;;19.70;99.90;;;;;;4202278;28;20215;-77
2022/12/23 06:09:27;;;;;;;2.60;1.60;;;19.70;99.90;;;;;;4202152;28;20309;-76
2022/12/23 06:11:30;;;;;;;2.05;1.40;;;19.70;99.90;;;;;;4197564;28;20284;-76
2022/12/23 06:13:32;;;;;;;3.42;1.70;;;19.70;99.90;;;;;;4198122;28;20218;-76
2022/12/23 06:15:34;;;;;;;2.38;1.30;;;19.70;99.90;;;;;;4197481;28;20662;-76
2022/12/23 06:17:37;;;;;;;2.90;1.35;;;19.80;99.90;;;;;;4199238;28;20235;-76
2022/12/23 06:19:41;;;;;;;2.45;1.45;;;19.80;99.90;;;;;;4198639;28;20272;-76
2022/12/23 06:21:43;;;;;;;2.40;1.40;;;19.80;99.90;;;;;;4200955;28;20237;-76
2022/12/23 06:23:46;;;;;;;3.42;1.60;;;19.80;99.90;;;;;;4200785;28;20268;-77
2022/12/23 06:25:48;;;;;;;2.83;1.38;;;19.80;99.90;;;;;;4197828;28;20256;-77
2022/12/23 06:27:50;;;;;;;2.30;1.60;;;19.80;99.90;;;;;;4200439;28;20251;-73
2022/12/23 06:29:53;;;;;;;2.55;1.33;;;19.90;99.90;;;;;;4209074;28;20329;-76
2022/12/23 06:31:55;;;;;;;3.55;1.60;;;19.90;99.90;;;;;;4202790;28;20206;-76
2022/12/23 06:33:57;;;;;;;2.53;1.35;;;19.90;99.90;;;;;;4201451;28;20217;-77
2022/12/23 06:36:01;;;;;;;3.13;1.58;;;19.90;99.90;;;;;;4205767;28;20222;-76
2022/12/23 06:38:04;;;;;;;2.65;1.40;;;19.90;99.90;;;;;;4201622;28;21044;-76
2022/12/23 06:40:07;;;;;;;3.47;1.63;;;19.90;99.90;;;;;;4202039;28;20218;-77
2022/12/23 06:42:09;;;;;;;2.67;1.63;;;20.00;99.90;;;;;;4203598;28;20218;-76
2022/12/23 06:44:12;;;;;;;3.60;1.50;;;20.00;99.90;;;;;;4203397;28;20321;-76
2022/12/23 06:46:14;;;;;;;2.08;1.35;;;20.00;99.90;;;;;;4204317;28;20215;-76
2022/12/23 06:48:17;;;;;;;2.60;1.40;;;20.00;99.90;;;;;;4198203;28;20272;-76
2022/12/23 06:50:19;;;;;;;2.30;1.40;;;20.00;99.90;;;;;;4203736;28;20214;-76
2022/12/23 06:52:23;;;;;;;3.75;1.92;;;20.00;99.90;;;;;;4199641;28;20214;-76
2022/12/23 06:54:26;;;;;;;3.70;1.70;;;20.00;99.90;;;;;;4201310;28;20236;-76
2022/12/23 06:56:28;;;;;;;2.97;1.50;;;20.00;99.90;;;;;;4200217;28;20214;-76
2022/12/23 06:58:30;;;;;;;2.72;1.55;;;20.10;99.90;;;;;;4205151;28;20218;-76
2022/12/23 07:00:33;;;;;;;2.45;1.50;;;20.10;99.90;;;;;;4200402;28;20215;-76
2022/12/23 07:02:35;;;;;;;4.03;1.48;;;20.10;99.90;;;;;;4207254;28;20215;-76
2022/12/23 07:04:37;;;;;;;2.33;1.58;;;20.10;99.90;;;;;;4200967;28;20272;-77
2022/12/23 07:06:40;;;;;;;2.50;1.40;;;20.10;99.90;;;;;;4199698;28;20791;-76
2022/12/23 07:08:44;;;;;;;1.88;1.30;;;20.10;99.90;;;;;;4202712;28;20211;-76
2022/12/23 07:10:46;;;;;;;2.67;1.73;;;20.20;99.90;;;;;;4200949;28;20207;-76
2022/12/23 07:12:48;;;;;;;2.17;1.45;;;20.20;99.90;;;;;;4199918;28;20325;-76
2022/12/23 07:14:51;;;;;;;3.05;1.70;;;20.20;99.90;;;;;;4200587;28;20218;-76
2022/12/23 07:16:53;;;;;;;3.10;1.55;;;20.20;99.90;;;;;;4202534;28;20714;-77
2022/12/23 07:18:55;;;;;;;2.15;1.08;;;20.20;99.90;;;;;;4203458;28;20215;-76
2022/12/23 07:21:00;;;;;;;2.47;1.23;;;20.30;99.90;;;;;;4204906;28;20260;-76
2022/12/23 07:23:02;;;;;;;2.10;1.23;;;20.30;99.90;;;;;;4202422;28;20280;-76
2022/12/23 07:25:08;;;;;;;2.92;1.42;;;20.30;99.90;;;;;;4199926;28;20328;-76
2022/12/23 07:27:10;;;;;;;2.00;1.27;;;20.30;99.90;;;;;;4198024;28;20211;-76
2022/12/23 07:29:13;;;;;;;2.95;1.48;;;20.40;99.90;;;;;;4200649;28;20218;-76
2022/12/23 07:31:16;;;;;;;3.65;1.48;;;20.40;99.90;;;;;;4200832;28;20504;-76
2022/12/23 07:33:18;;;;;;;2.17;1.33;;;20.40;99.90;;;;;;4202623;28;20214;-76
2022/12/23 07:35:20;;;;;;;3.60;1.30;;;20.40;99.90;;;;;;4203534;28;20222;-76
2022/12/23 07:37:23;;;;;;;2.50;1.13;;;20.40;99.90;;;;;;4203904;28;20234;-76
2022/12/23 07:39:25;;;;;;;2.47;1.33;;;20.50;99.90;;;;;;4209297;28;20218;-76
2022/12/23 07:41:29;;;;;;;2.03;1.08;;;20.50;99.90;;;;;;4203654;28;20261;-75
2022/12/23 07:43:31;;;;;;;2.08;1.10;;;20.50;99.90;;;;;;4200332;28;20663;-76
2022/12/23 07:45:34;;;;;;;2.22;1.20;;;20.50;99.90;;;;;;4208206;28;20263;-76
2022/12/23 07:47:36;;;;;;;2.15;1.30;;;20.50;99.90;;;;;;4200379;28;20378;-76
2022/12/23 07:49:38;;;;;;;8.00;1.63;;;20.50;99.90;;;;;;4202395;28;20666;-75
2022/12/23 07:51:41;;;;;;;3.15;1.50;;;20.50;99.90;;;;;;4205631;28;20210;-75
2022/12/23 07:53:43;;;;;;;4.10;1.88;;;20.60;99.90;;;;;;4203511;28;20487;-76
2022/12/23 07:55:46;;;;;;;6.05;1.65;;;20.60;99.90;;;;;;4208720;28;20218;-76
2022/12/23 07:57:50;;;;;;;9.60;2.13;;;20.60;99.90;;;;;;4204422;28;20235;-75
2022/12/23 07:59:53;;;;;;;3.60;1.30;;;20.70;99.90;;;;;;4207451;28;20256;-75
2022/12/23 08:01:55;;;;;;;3.30;1.27;;;20.70;99.90;;;;;;4201438;28;20372;-76
2022/12/23 08:03:57;;;;;;;8.82;1.65;;;20.80;99.90;;;;;;4205072;28;20210;-76
2022/12/23 08:06:01;;;;;;;3.97;1.60;;;20.70;99.90;;;;;;4201182;28;20215;-76
2022/12/23 08:08:04;;;;;;;2.97;1.77;;;20.70;99.90;;;;;;4202880;28;20208;-76
2022/12/23 08:10:08;;;;;;;2.13;1.33;;;20.60;99.90;;;;;;4201360;28;20211;-75
2022/12/23 08:12:10;;;;;;;5.75;1.40;;;20.70;99.90;;;;;;4202501;28;20218;-76
2022/12/23 08:14:14;;;;;;;5.63;1.80;;;20.70;99.90;;;;;;4203606;28;20703;-77
2022/12/23 08:16:17;;;;;;;3.47;1.55;;;20.70;99.90;;;;;;4202878;28;20300;-77
2022/12/23 08:18:19;;;;;;;4.22;1.88;;;20.80;99.90;;;;;;4206867;28;20304;-77
2022/12/23 08:20:21;;;;;;;2.08;1.23;;;20.80;99.90;;;;;;4199847;28;20218;-76
2022/12/23 08:22:24;;;;;;;2.92;1.38;;;20.90;99.90;;;;;;4203344;28;20210;-75
2022/12/23 08:24:27;;;;;;;4.88;1.30;;;20.90;99.90;;;;;;4201477;28;20902;-77
2022/12/23 08:26:29;;;;;;;3.20;1.35;;;21.00;99.90;;;;;;4206038;28;20211;-77
2022/12/23 08:28:32;;;;;;;3.42;1.50;;;20.90;99.90;;;;;;4203412;28;20207;-76
2022/12/23 08:30:36;;;;;;;3.20;1.17;;;20.90;99.90;;;;;;4202916;28;20284;-75
2022/12/23 08:32:38;;;;;;;1.45;1.10;;;20.90;99.90;;;;;;4209845;28;20215;-75
2022/12/23 08:34:40;;;;;;;4.97;2.00;;;20.90;99.90;;;;;;4210617;28;20616;-75
2022/12/23 08:36:43;;;;;;;3.35;1.30;;;21.00;99.90;;;;;;4208664;28;20226;-76
2022/12/23 08:38:46;;;;;;;4.45;1.77;;;21.00;99.90;;;;;;4208820;28;20279;-76
2022/12/23 08:40:48;;;;;;;2.72;1.33;;;20.90;99.90;;;;;;4204338;28;20207;-75
2022/12/23 08:42:51;;;;;;;2.90;1.67;;;21.00;99.90;;;;;;4206161;28;20223;-74
2022/12/23 08:44:53;;;;;;;3.28;1.50;;;21.00;99.90;;;;;;4209125;28;20263;-75
2022/12/23 08:46:57;;;;;;;2.58;1.45;;;21.00;99.90;;;;;;4206971;28;20215;-74
2022/12/23 08:49:00;;;;;;;2.63;1.35;;;21.10;99.90;;;;;;4207281;28;20709;-74
2022/12/23 08:51:05;;;;;;;2.97;1.50;;;21.10;99.90;;;;;;4208963;28;20279;-76
2022/12/23 08:53:07;;;;;;;4.65;1.50;;;21.10;99.90;;;;;;4209576;28;20632;-76
2022/12/23 08:55:09;;;;;;;2.05;1.20;;;21.10;99.90;;;;;;4201839;28;20316;-74
2022/12/23 08:57:12;;;;;;;2.90;1.40;;;21.10;99.90;;;;;;4204800;28;20238;-75
2022/12/23 08:59:15;;;;;;;2.47;1.30;;;21.10;99.90;;;;;;4206582;28;20291;-74
2022/12/23 09:01:20;;;;;;;2.50;1.15;;;21.10;99.90;;;;;;4210783;28;20218;-75
2022/12/23 09:03:23;;;;;;;3.17;1.48;;;21.20;99.90;;;;;;4200968;28;20276;-75
2022/12/23 09:05:26;;;;;;;3.33;1.60;;;21.20;99.90;;;;;;4209027;28;20245;-77
2022/12/23 09:07:28;;;;;;;3.22;1.48;;;21.20;99.90;;;;;;4206719;28;20227;-75
2022/12/23 09:09:31;;;;;;;5.32;1.65;;;21.10;99.90;;;;;;4203702;28;20211;-75
2022/12/23 09:11:34;;;;;;;2.97;1.40;;;21.10;99.90;;;;;;4207808;28;20214;-76
2022/12/23 09:13:37;;;;;;;4.93;1.83;;;21.20;99.90;;;;;;4206276;28;20263;-75
2022/12/23 09:15:41;;;;;;;2.40;1.30;;;21.20;99.90;;;;;;4201972;28;20268;-76
2022/12/23 09:17:44;;;;;;;4.53;1.50;;;21.20;99.90;;;;;;4205966;28;20211;-75
2022/12/23 09:19:48;;;;;;;2.45;1.30;;;21.30;99.90;;;;;;4207665;28;20261;-74
2022/12/23 09:21:50;;;;;;;2.05;1.05;;;21.30;99.90;;;;;;4207074;28;20623;-76
2022/12/23 09:23:53;;;;;;;3.25;1.27;;;21.30;99.90;;;;;;4207308;28;20209;-74
2022/12/23 09:25:55;;;;;;;3.05;1.45;;;21.20;99.90;;;;;;4209576;28;20210;-76
2022/12/23 09:27:58;;;;;;;8.70;2.13;;;21.20;99.90;;;;;;4209762;28;20268;-74
2022/12/23 09:30:00;;;;;;;16.05;2.80;;;21.20;99.90;;;;;;4204939;28;20240;-77
2022/12/23 09:32:03;;;;;;;12.95;2.28;;;21.30;99.90;;;;;;4206779;28;20222;-78
2022/12/23 09:34:07;;;;;;;8.18;1.95;;;21.40;99.90;;;;;;4207614;28;20210;-76
2022/12/23 09:36:10;;;;;;;14.88;2.38;;;21.50;99.90;;;;;;4208034;28;20248;-75
2022/12/23 09:38:20;;;;;;;15.80;1.83;;;21.40;99.90;;;;;;4202337;28;20238;-74
2022/12/23 09:40:33;;;;;;;10.43;1.88;;;21.40;99.90;;;;;;4201069;28;20241;-75
2022/12/23 09:42:57;;;;;;;6.93;1.65;;;21.40;99.90;;;;;;4208198;28;20210;-74
2022/12/23 09:45:12;;;;;;;8.10;1.65;;;21.40;99.90;;;;;;4207265;28;20223;-77
2022/12/23 09:47:31;;;;;;;12.65;1.90;;;21.50;99.90;;;;;;4206319;28;20214;-77
2022/12/23 09:49:34;;;;;;;10.10;2.08;;;21.50;99.90;;;;;;4206407;28;20210;-75
2022/12/23 09:51:38;;;;;;;8.82;1.70;;;21.60;99.90;;;;;;4202937;28;20268;-74
2022/12/23 09:53:49;;;;;;;7.20;1.92;;;21.60;99.90;;;;;;4201904;28;20203;-75
2022/12/23 09:55:57;;;;;;;8.98;1.50;;;21.60;99.90;;;;;;4207174;28;20222;-74
2022/12/23 09:58:01;;;;;;;7.55;1.92;;;21.60;99.90;;;;;;4201277;28;20686;-74
2022/12/23 10:00:10;;;;;;;6.07;2.00;;;21.60;99.90;;;;;;4206219;28;20268;-75
2022/12/23 10:02:24;;;;;;;6.22;1.80;;;21.60;99.90;;;;;;4206586;28;20719;-76
2022/12/23 10:04:39;;;;;;;3.90;1.65;;;21.60;99.90;;;;;;4208353;28;20646;-75
2022/12/23 10:06:50;;;;;;;7.40;1.38;;;21.60;99.90;;;;;;4205402;28;20278;-75
2022/12/23 10:08:58;;;;;;;8.23;1.45;;;21.50;99.90;;;;;;4203757;28;20210;-75
2022/12/23 10:11:06;;;;;;;3.97;1.65;;;21.60;99.90;;;;;;4205144;28;20217;-75
2022/12/23 10:13:19;;;;;;;5.70;1.42;;;21.60;99.90;;;;;;4207489;28;20666;-76
2022/12/23 10:15:27;;;;;;;4.50;1.38;;;21.70;99.90;;;;;;4205818;28;20235;-76
2022/12/23 10:17:34;;;;;;;6.65;1.40;;;21.60;99.90;;;;;;4209502;28;20206;-75
2022/12/23 10:19:41;;;;;;;5.05;1.65;;;21.60;99.90;;;;;;4205243;28;20287;-76
2022/12/23 10:22:01;;;;;;;3.50;1.05;;;21.70;99.90;;;;;;4207631;28;20219;-75
2022/12/23 10:24:11;;;;;;;3.50;1.30;;;21.70;99.90;;;;;;4207161;28;20214;-74
2022/12/23 10:26:21;;;;;;;3.97;1.20;;;21.70;99.90;;;;;;4208807;28;20218;-75
2022/12/23 10:28:24;;;;;;;2.35;1.17;;;21.70;99.90;;;;;;4206551;28;20268;-75
2022/12/23 10:30:29;;;;;;;3.90;1.20;;;21.70;99.90;;;;;;4206786;28;20206;-76
2022/12/23 10:32:50;;;;;;;4.93;1.45;;;21.70;99.90;;;;;;4204568;28;20207;-75
2022/12/23 10:34:56;;;;;;;2.75;1.30;;;21.80;99.90;;;;;;4204492;28;20931;-75
2022/12/23 10:37:06;;;;;;;3.35;1.25;;;21.80;99.90;;;;;;4206325;28;20226;-75
2022/12/23 10:39:19;;;;;;;2.15;1.15;;;21.70;99.90;;;;;;4205659;28;20234;-75
2022/12/23 10:41:30;;;;;;;5.07;1.42;;;21.80;99.90;;;;;;4206967;28;20210;-75
2022/12/23 10:43:47;;;;;;;2.38;1.30;;;21.80;99.90;;;;;;4205758;28;20210;-76
2022/12/23 10:45:58;;;;;;;1.63;1.17;;;21.80;99.90;;;;;;4207326;28;20218;-75
2022/12/23 10:48:14;;;;;;;6.60;1.35;;;21.80;99.90;;;;;;4207809;28;20219;-77
2022/12/23 10:50:34;;;;;;;3.83;1.40;;;21.80;99.90;;;;;;4207295;28;20237;-77
2022/12/23 10:52:42;;;;;;;3.38;1.50;;;21.90;99.90;;;;;;4205554;28;20256;-76
2022/12/23 10:54:46;;;;;;;3.53;1.35;;;21.80;99.90;;;;;;4196063;28;20268;-75
2022/12/23 10:56:49;;;;;;;3.80;1.30;;;21.90;99.90;;;;;;4207494;28;20706;-76
2022/12/23 10:58:55;;;;;;;5.43;1.42;;;21.90;99.90;;;;;;4202991;28;20231;-77
2022/12/23 11:01:03;;;;;;;2.50;1.38;;;21.90;99.90;;;;;;4198207;28;20268;-76
2022/12/23 11:03:17;;;;;;;3.15;1.30;;;21.90;99.90;;;;;;4204644;28;20268;-74
2022/12/23 11:05:27;;;;;;;6.43;1.65;;;21.90;99.90;;;;;;4204523;28;20291;-75
2022/12/23 11:07:30;;;;;;;2.30;1.17;;;21.90;99.90;;;;;;4208489;28;20205;-74
2022/12/23 11:09:39;;;;;;;4.38;1.20;;;21.80;99.90;;;;;;4203822;28;20207;-73
2022/12/23 11:11:56;;;;;;;3.08;0.93;;;21.90;99.90;;;;;;4205066;28;20260;-74
2022/12/23 11:13:58;;;;;;;2.88;1.30;;;21.90;99.90;;;;;;4199448;28;20709;-74
2022/12/23 11:16:13;;;;;;;5.32;1.10;;;22.00;99.90;;;;;;4209227;28;20622;-74